Main page
METAR-TAF:

METAR-TAF

Airports :

Nouakchott–Oumtounsy International Airport

Nouakchott, Mauritania

latitude: 18-18-36N, longitude: 015-58-11W, elevation: 3 m

Current weather observation

The report was made 21 minutes ago, at 07:30 UTC
Wind 7 kt from the Northwest
Temperature 25°C
Humidity 89%
Pressure 1011 hPa
Visibility 10 km or more
no clouds below 1500 m and no cumulonimbus

METAR: GQNO 180730Z 31007KT CAVOK 25/23 Q1011 NOSIG

Time: 07:51 (07:51 UTC)

Forecast

The report was made 2 hours and 21 minutes ago, at 05:30 UTC
Forecast valid from 18 at 06 UTC to 19 at 12 UTC
Wind 8 kt from the West/Northwest
Visibility: 7000 m
Temporary
from 18 at 06 UTC to 18 at 08 UTC
Broken clouds at a height of 1500 ft

TAF: GQNO 180530Z 1806/1912 30008KT 7000 NSC TEMPO 1806/1808 BKN015

Weather observations and forecasts of more than 4000 airports (METAR and TAF reports).

The available stations are represented by yellow and red dots on the map.

Hover mouse over dot to see the name of the station.

Then click to see weather observations and forecasts.

To change the map : click on the green buttons with a black cross to zoom in, on the green button with a dash to zoom out, or on the green arrows for adjacent maps.


METAR-TAF: